KRHV/RHV METAR and TAF weather

Enter ICAO airport designator
Station Type Date Time Source
KRHV METAR 2022/12/04 05:55 UTC NOAA

KRHV 040555Z 00000KT 2SM BR BKN005 OVC010 09/09 A2997 -RA RMK LAST


Station Type Date Time Source
KRHV Decoded METAR 2022/12/04 05:55 UTC NOAA

San Jose / Reid / Hillv, CA, United States (KRHV) 37-20N 121-49W
Dec 04, 2022 - 12:55 AM EST / 2022.12.04 0555 UTC
Wind: Calm:0
Visibility: 2 mile(s):0
Sky conditions: overcast
Weather: mist
Temperature: 48 F (9 C)
Dew Point: 48 F (9 C)
Relative Humidity: 100%
Pressure (altimeter): 29.97 in. Hg (1014 hPa)
ob: KRHV 040555Z 00000KT 2SM BR BKN005 OVC010 09/09 A2997 -RA RMK LAST
cycle: 6

Station Type Date Time Source
KRHV TAF UTC NOAA

Error!

Example: see airport list